Irmo, South Carolina
Current Conditions -  °F | °C
As of 1:56 PM on Friday 21 Nov 2014 (Local Time) from KCAE Reporting Station
Clear Clear  
Wind Chill: 18°   Ceiling: Unl
Heat Index: 18°   Visibility: 10mi
Dew Point: -4°   Wind: 10mph
Humidity: 22%   Direction: 300°WNW
Pressure: 30.36"   Gusts: NA
Location:  34.09°N, 81.18°W
Report Text: KCAE 211856Z 30009KT 10SM CLR 18/M04 A3036 RMK AO2 SLP279 T01781044
Loading
Personal Weather Stations






























Interactive Weather Map New forecast layout! Learn more

10-Day Weather Forecast

Advertisements
Track Severe Weather on mobile